Time;durP1;ratioP1;P1;durP2;ratioP2;P2;SDS_P1;SDS_P2;PMS_P1;PMS_P2;Temp;Humidity;BMP_temperature;BMP_pressure;BME280_temperature;BME280_humidity;BME280_pressure;Samples;Min_cycle;Max_cycle;Signal;HPM_P1;HPM_P2
2023/03/20 00:01:25;;;;;;;4.70;4.22;;;;;;;6.97;66.00;100172.94;6335260;22;20006;-78
2023/03/20 00:03:51;;;;;;;5.85;4.05;;;;;;;7.16;66.20;100213.28;6335643;22;20030;-78
2023/03/20 00:06:22;;;;;;;5.68;4.03;;;;;;;7.03;66.19;100200.97;6335263;22;20086;-80
2023/03/20 00:08:51;;;;;;;2.92;2.72;;;;;;;6.90;65.04;100172.88;6335481;22;20002;-79
2023/03/20 00:11:27;;;;;;;4.68;3.33;;;;;;;6.99;65.72;100242.03;6307548;22;20003;-78
2023/03/20 00:13:55;;;;;;;6.55;5.80;;;;;;;6.52;65.33;100153.34;6335703;22;19999;-79
2023/03/20 00:16:24;;;;;;;5.10;4.03;;;;;;;6.27;66.67;100147.00;6335464;22;20456;-78
2023/03/20 00:18:51;;;;;;;4.53;4.22;;;;;;;5.91;66.63;100133.50;6335079;22;20011;-79
2023/03/20 00:21:18;;;;;;;15.20;13.70;;;;;;;5.95;67.44;100172.81;6335198;22;19999;-78
2023/03/20 00:23:44;;;;;;;7.85;7.15;;;;;;;5.56;67.37;100138.31;6335803;22;20052;-78
2023/03/20 00:26:17;;;;;;;2.40;2.28;;;;;;;5.77;67.37;100176.97;6335383;22;20038;-77
2023/03/20 00:28:45;;;;;;;2.55;1.90;;;;;;;5.52;68.15;100153.13;6308256;22;20457;-77
2023/03/20 00:31:34;;;;;;;2.58;2.45;;;;;;;5.81;68.88;100211.91;6334523;22;20007;-76
2023/03/20 00:34:04;;;;;;;8.48;2.30;;;;;;;5.54;69.73;100206.34;6335376;22;20059;-76
2023/03/20 00:36:30;;;;;;;2.63;1.92;;;;;;;4.99;69.78;100141.06;6335415;22;20004;-77
2023/03/20 00:38:58;;;;;;;;;;;;;;;5.16;71.93;100205.81;6307381;22;20067;-77
2023/03/20 00:41:32;;;;;;;1.85;1.75;;;;;;;5.38;71.87;100212.25;6335216;22;19913;-77
2023/03/20 00:44:18;;;;;;;2.25;2.15;;;;;;;5.61;70.46;100201.19;6335107;22;20026;-77
2023/03/20 00:46:46;;;;;;;2.22;2.13;;;;;;;5.77;68.84;100191.81;6335212;22;20006;-77
2023/03/20 00:49:12;;;;;;;1.75;1.70;;;;;;;5.76;69.01;100166.50;6334954;22;20003;-77
2023/03/20 00:51:38;;;;;;;;;;;;;;;6.02;68.81;100195.63;6335387;22;20119;-77
2023/03/20 00:54:16;;;;;;;2.38;2.28;;;;;;;5.99;68.50;100183.38;6335428;22;19932;-77
2023/03/20 00:57:13;;;;;;;8.63;3.60;;;;;;;5.76;68.78;100159.50;6335495;22;20007;-77
2023/03/20 00:59:50;;;;;;;1.50;1.40;;;;;;;5.97;68.57;100186.84;6334310;22;20021;-77
2023/03/20 01:02:15;;;;;;;8.13;3.35;;;;;;;5.84;67.97;100151.75;6335146;22;20003;-78
2023/03/20 01:04:41;;;;;;;;;;;;;;;6.00;67.74;100181.66;6335957;22;20010;-78
2023/03/20 01:07:11;;;;;;;4.30;2.92;;;;;;;5.89;68.19;100179.75;6334589;22;19910;-78
2023/03/20 01:09:37;;;;;;;2.60;2.40;;;;;;;6.09;67.74;100187.00;6335448;22;19998;-78
2023/03/20 01:12:02;;;;;;;;;;;;;;;5.99;67.75;100186.00;6335162;22;20010;-78
2023/03/20 01:14:27;;;;;;;;;;;;;;;6.04;67.35;100183.41;6335292;22;20301;-78
2023/03/20 01:16:53;;;;;;;2.50;2.30;;;;;;;5.81;66.87;100146.47;6333885;22;19910;-78
2023/03/20 01:19:18;;;;;;;;;;;;;;;5.86;67.29;100194.56;6334933;22;20010;-78
2023/03/20 01:21:43;;;;;;;;;;;;;;;5.98;67.06;100183.34;6335323;22;20365;-78
2023/03/20 01:24:09;;;;;;;1.37;1.33;;;;;;;5.46;67.22;100103.31;6334908;22;19989;-78
2023/03/20 01:26:38;;;;;;;;;;;;;;;5.88;67.64;100180.59;6334846;22;20085;-78
2023/03/20 01:29:17;;;;;;;1.92;1.83;;;;;;;5.83;67.78;100160.47;6335065;22;19929;-78
2023/03/20 01:31:42;;;;;;;2.42;2.13;;;;;;;5.70;68.11;100159.44;6306715;22;20007;-78
2023/03/20 01:34:09;;;;;;;;;;;;;;;5.81;67.61;100176.16;6335675;22;20079;-78
2023/03/20 01:36:36;;;;;;;2.35;2.17;;;;;;;5.73;67.36;100167.31;6334689;22;19985;-78
2023/03/20 01:39:02;;;;;;;5.22;4.82;;;;;;;5.66;66.67;100150.66;6334367;22;20017;-78
2023/03/20 01:41:29;;;;;;;2.72;2.53;;;;;;;5.52;66.49;100152.25;6334977;22;20003;-78
2023/03/20 01:43:54;;;;;;;1.88;1.77;;;;;;;5.53;66.22;100183.66;6334847;22;20014;-78
2023/03/20 01:46:28;;;;;;;;;;;;;;;5.48;66.44;100185.31;6333931;22;20046;-80
2023/03/20 01:49:05;;;;;;;3.47;3.15;;;;;;;5.27;66.30;100151.91;6308510;22;20348;-79
2023/03/20 01:51:31;;;;;;;3.85;3.55;;;;;;;4.80;66.33;100105.03;6337018;22;20025;-77
2023/03/20 01:54:00;;;;;;;;;;;;;;;5.27;66.35;100178.09;6337494;22;20404;-77
2023/03/20 01:56:30;;;;;;;1.35;1.25;;;;;;;5.18;66.02;100147.44;6337360;22;19906;-78
2023/03/20 01:59:01;;;;;;;1.92;1.80;;;;;;;5.33;66.08;100172.03;6336690;22;20020;-78
2023/03/20 02:01:27;;;;;;;1.27;1.27;;;;;;;5.07;66.05;100141.19;6336443;22;20425;-77
2023/03/20 02:03:54;;;;;;;4.43;3.97;;;;;;;5.26;65.55;100141.44;6336339;22;20040;-78
2023/03/20 02:06:22;;;;;;;4.03;3.45;;;;;;;5.00;66.66;100140.22;6337074;22;20093;-78
2023/03/20 02:08:50;;;;;;;2.35;1.90;;;;;;;5.25;66.25;100176.28;6336826;22;20003;-78
2023/03/20 02:11:18;;;;;;;2.40;2.20;;;;;;;5.02;66.26;100140.25;6336267;22;20007;-77
2023/03/20 02:13:45;;;;;;;2.88;2.67;;;;;;;4.98;66.83;100164.56;6336270;22;20529;-78
2023/03/20 02:16:14;;;;;;;1.02;1.02;;;;;;;4.90;67.31;100177.53;6336509;22;20064;-78
2023/03/20 02:18:43;;;;;;;4.03;3.67;;;;;;;4.86;66.88;100157.41;6336586;22;20512;-78
2023/03/20 02:21:30;;;;;;;2.85;2.65;;;;;;;4.81;67.02;100182.59;6336485;22;20010;-77
2023/03/20 02:24:24;;;;;;;9.35;3.70;;;;;;;4.80;66.83;100173.91;6336543;22;20007;-79
2023/03/20 02:27:18;;;;;;;3.97;3.67;;;;;;;4.52;67.06;100135.97;6336571;22;20075;-78
2023/03/20 02:30:14;;;;;;;3.25;1.88;;;;;;;4.85;67.24;100171.34;6335953;22;20052;-78
2023/03/20 02:33:49;;;;;;;4.10;2.35;;;;;;;4.85;66.99;100179.19;6336391;22;20445;-78
2023/03/20 02:36:35;;;;;;;1.90;1.80;;;;;;;4.79;67.65;100179.97;6091729;23;20113;-80
2023/03/20 02:39:31;;;;;;;2.92;2.55;;;;;;;4.86;67.92;100174.84;6091596;23;20018;-78
2023/03/20 02:42:23;;;;;;;2.35;2.22;;;;;;;4.24;69.01;100129.41;6091642;23;20562;-79
2023/03/20 02:45:09;;;;;;;2.83;2.63;;;;;;;4.59;69.22;100160.47;6090859;23;20010;-78
2023/03/20 02:47:47;;;;;;;2.85;2.65;;;;;;;4.63;69.42;100171.00;6091477;23;20041;-79
2023/03/20 02:50:17;;;;;;;2.22;2.13;;;;;;;4.65;68.88;100171.91;6091240;23;20014;-78
2023/03/20 02:52:55;;;;;;;2.53;2.33;;;;;;;4.40;68.61;100128.81;6091669;23;20475;-78
2023/03/20 02:55:42;;;;;;;4.00;2.17;;;;;;;4.41;69.11;100124.47;6091507;23;20010;-78
2023/03/20 02:58:27;;;;;;;5.43;2.50;;;;;;;4.61;68.93;100159.63;6091495;23;20050;-77
2023/03/20 03:00:57;;;;;;;4.35;3.97;;;;;;;4.53;68.76;100160.38;6092025;23;20006;-78
2023/03/20 03:03:31;;;;;;;1.90;1.80;;;;;;;4.43;68.66;100155.00;6091776;23;20034;-78
2023/03/20 03:06:05;;;;;;;2.35;1.90;;;;;;;4.35;69.23;100156.56;6091677;23;20037;-77
2023/03/20 03:08:37;;;;;;;2.70;2.50;;;;;;;4.43;68.94;100146.25;6095280;23;20010;-78
2023/03/20 03:11:06;;;;;;;1.85;1.75;;;;;;;4.32;68.46;100126.91;6289455;22;20034;-77
2023/03/20 03:13:34;;;;;;;3.33;2.28;;;;;;;4.51;69.11;100169.91;6305089;22;20073;-77
2023/03/20 03:16:05;;;;;;;4.53;3.65;;;;;;;4.46;68.41;100139.38;6305202;22;20042;-77
2023/03/20 03:18:34;;;;;;;2.75;2.47;;;;;;;3.99;68.00;100073.25;6303848;22;19999;-78
2023/03/20 03:21:03;;;;;;;2.42;2.33;;;;;;;4.38;68.09;100138.34;6304831;22;20397;-78
2023/03/20 03:23:39;;;;;;;7.20;6.22;;;;;;;4.17;68.75;100131.03;6304666;22;20007;-79
2023/03/20 03:26:06;;;;;;;;;;;;;;;4.27;68.36;100158.19;6305432;22;20003;-77
2023/03/20 03:28:38;;;;;;;6.55;3.58;;;;;;;4.15;67.62;100148.38;6305381;22;19982;-77
2023/03/20 03:31:07;;;;;;;1.33;1.33;;;;;;;4.07;67.61;100148.22;6304844;22;20078;-77
2023/03/20 03:33:36;;;;;;;3.88;2.53;;;;;;;3.86;67.50;100125.25;6304382;22;20007;-78
2023/03/20 03:36:24;;;;;;;2.75;2.55;;;;;;;4.02;66.99;100157.72;6304910;22;20004;-78
2023/03/20 03:39:14;;;;;;;2.08;1.95;;;;;;;4.07;66.98;100156.06;6304820;22;20131;-78
2023/03/20 03:42:29;;;;;;;4.40;4.10;;;;;;;4.11;66.65;100159.63;6305057;22;20450;-78
2023/03/20 03:45:11;;;;;;;3.80;2.33;;;;;;;3.86;67.90;100153.06;6176133;23;20104;-78
2023/03/20 03:48:01;;;;;;;3.22;2.95;;;;;;;3.48;67.71;100072.31;6178863;23;20056;-78
2023/03/20 03:50:31;;;;;;;4.90;4.55;;;;;;;3.66;68.16;100110.91;6180233;23;20012;-78
2023/03/20 03:53:03;;;;;;;7.05;4.85;;;;;;;3.83;67.74;100153.88;6180520;23;20036;-77
2023/03/20 03:55:38;;;;;;;6.60;4.82;;;;;;;3.79;67.71;100132.91;6179543;23;20140;-77
2023/03/20 03:58:10;;;;;;;2.72;2.53;;;;;;;3.81;68.32;100145.13;6186282;23;20025;-78
2023/03/20 04:00:39;;;;;;;4.20;3.80;;;;;;;3.82;68.50;100159.94;6209756;23;20051;-77
2023/03/20 04:03:07;;;;;;;6.20;3.60;;;;;;;3.95;68.31;100158.44;6209495;23;20011;-78
2023/03/20 04:05:36;;;;;;;4.32;3.95;;;;;;;3.73;68.33;100123.22;6209781;23;20348;-78
2023/03/20 04:08:04;;;;;;;2.03;1.92;;;;;;;3.75;68.09;100134.56;6209308;23;20009;-79
2023/03/20 04:10:30;;;;;;;3.03;2.83;;;;;;;4.00;67.83;100154.22;6208849;23;20020;-78
2023/03/20 04:12:55;;;;;;;;;;;;;;;4.03;68.20;100155.97;6210027;23;20029;-78
2023/03/20 04:15:20;;;;;;;;;;;;;;;3.97;68.02;100163.69;6208342;23;19907;-78
2023/03/20 04:17:46;;;;;;;;;;;;;;;4.04;68.35;100163.84;6208892;23;19946;-79
2023/03/20 04:20:12;;;;;;;1.30;1.30;;;;;;;3.87;68.03;100129.59;6208721;23;19908;-80
2023/03/20 04:22:38;;;;;;;2.42;2.28;;;;;;;3.85;67.77;100133.03;6301596;22;20035;-79
2023/03/20 04:25:04;;;;;;;;;;;;;;;4.08;67.89;100172.63;6276687;22;20010;-77
2023/03/20 04:27:30;;;;;;;1.58;1.55;;;;;;;3.87;67.35;100140.03;6304382;22;19911;-79
2023/03/20 04:29:55;;;;;;;;;;;;;;;3.85;68.30;100172.19;6304279;22;20315;-78
2023/03/20 04:32:21;;;;;;;2.03;1.92;;;;;;;3.78;68.22;100137.25;6302765;22;19956;-79
2023/03/20 04:34:46;;;;;;;;;;;;;;;4.04;68.58;100169.06;6304378;22;20464;-78
2023/03/20 04:37:11;;;;;;;;;;;;;;;4.12;68.39;100169.22;6304347;22;19930;-77
2023/03/20 04:39:37;;;;;;;2.15;2.05;;;;;;;3.83;68.81;100126.88;6304089;22;19918;-79
2023/03/20 04:42:03;;;;;;;;;;;;;;;4.05;68.71;100164.75;6305012;22;20489;-81
2023/03/20 04:44:29;;;;;;;;;;;;;;;3.89;67.71;100166.16;6303659;22;19903;-80
2023/03/20 04:46:54;;;;;;;3.05;2.80;;;;;;;3.82;67.86;100175.59;6302744;22;20281;-83
2023/03/20 04:49:19;;;;;;;;;;;;;;;3.90;68.04;100160.97;6304279;22;20007;-82
2023/03/20 04:51:45;;;;;;;2.58;2.42;;;;;;;3.97;68.01;100155.88;6303275;22;19903;-81
2023/03/20 04:54:10;;;;;;;;;;;;;;;4.10;68.16;100169.19;6303237;22;20007;-81
2023/03/20 04:56:36;;;;;;;;;;;;;;;3.96;67.46;100173.28;6304484;22;19977;-81
2023/03/20 04:59:01;;;;;;;2.10;2.00;;;;;;;3.92;67.19;100158.38;6323265;22;19911;-81
2023/03/20 05:01:26;;;;;;;;;;;;;;;3.89;68.30;100176.59;6334907;22;20003;-80
2023/03/20 05:03:56;;;;;;;;;;;;;;;3.78;68.65;100175.50;6334883;22;19970;-81
2023/03/20 05:06:22;;;;;;;1.70;1.65;;;;;;;3.76;69.31;100154.59;6334020;22;19906;-80
2023/03/20 05:08:47;;;;;;;;;;;;;;;4.00;69.42;100174.19;6334461;22;20060;-81
2023/03/20 05:11:12;;;;;;;;;;;;;;;4.16;69.09;100176.25;6335278;22;19902;-82
2023/03/20 05:13:38;;;;;;;2.70;2.50;;;;;;;4.19;69.34;100178.94;6335142;22;19907;-80
2023/03/20 05:16:03;;;;;;;;;;;;;;;4.35;69.75;100176.59;6333287;22;20228;-81
2023/03/20 05:18:28;;;;;;;2.50;2.40;;;;;;;4.34;69.58;100138.25;6334562;22;19913;-77
2023/03/20 05:20:54;;;;;;;;;;;;;;;4.74;68.99;100176.41;6335391;22;20003;-77
2023/03/20 05:23:19;;;;;;;;;;;;;;;4.78;69.41;100175.59;6336515;22;19964;-77
2023/03/20 05:25:44;;;;;;;2.53;2.40;;;;;;;4.72;69.80;100149.34;6335646;22;19906;-78
2023/03/20 05:28:10;;;;;;;;;;;;;;;4.95;70.26;100172.38;6336985;22;20279;-80
2023/03/20 05:30:35;;;;;;;10.90;2.60;;;;;;;5.06;70.58;100159.47;6336038;22;20380;-82
2023/03/20 05:33:01;;;;;;;;;;;;;;;5.15;71.73;100178.78;6336841;22;20009;-79
2023/03/20 05:35:26;;;;;;;;;;;;;;;5.39;71.77;100185.19;6335514;22;20234;-79
2023/03/20 05:37:51;;;;;;;2.57;2.43;;;;;;;5.57;71.14;100174.09;6335168;22;20044;-77
2023/03/20 05:40:18;;;;;;;;;;;;;;;5.80;71.41;100178.75;6336780;22;20289;-77
2023/03/20 05:42:44;;;;;;;3.90;3.42;;;;;;;5.93;71.79;100180.66;6335731;22;20249;-79
2023/03/20 05:45:10;;;;;;;2.05;1.95;;;;;;;5.82;73.52;100164.81;6308567;22;20014;-79
2023/03/20 05:47:35;;;;;;;;;;;;;;;5.97;73.99;100171.16;6336328;22;20010;-78
2023/03/20 05:50:02;;;;;;;3.97;3.72;;;;;;;5.77;74.88;100165.63;6334296;22;19949;-78
2023/03/20 05:52:27;;;;;;;4.95;3.97;;;;;;;5.81;73.85;100165.69;6334833;22;20011;-79
2023/03/20 05:54:52;;;;;;;;;;;;;;;6.13;73.69;100166.94;6336627;22;20443;-78
2023/03/20 05:57:18;;;;;;;;;;;;;;;6.18;74.26;100171.38;6308738;22;19929;-78
2023/03/20 05:59:43;;;;;;;21.33;3.53;;;;;;;6.51;73.85;100169.06;6336367;22;19911;-78
2023/03/20 06:02:09;;;;;;;;;;;;;;;6.63;74.41;100169.19;6336655;22;20105;-81
2023/03/20 06:04:36;;;;;;;6.25;5.75;;;;;;;6.84;73.19;100144.84;6334376;22;19910;-80
2023/03/20 06:07:02;;;;;;;3.28;3.08;;;;;;;7.07;72.79;100141.53;6335650;22;20380;-78
2023/03/20 06:09:27;;;;;;;2.55;2.33;;;;;;;7.22;72.41;100135.50;6335885;22;20011;-81
2023/03/20 06:11:53;;;;;;;;;;;;;;;7.48;72.60;100168.00;6336745;22;20010;-79
2023/03/20 06:14:18;;;;;;;;;;;;;;;7.46;72.39;100167.13;6336396;22;19907;-78
2023/03/20 06:16:44;;;;;;;4.20;3.87;;;;;;;7.40;72.82;100151.34;6335002;22;19917;-80
2023/03/20 06:19:09;;;;;;;;;;;;;;;7.75;72.66;100158.50;6334625;22;20398;-78
2023/03/20 06:21:35;;;;;;;3.97;3.55;;;;;;;7.56;71.62;100093.66;6335639;22;19913;-78
2023/03/20 06:24:00;;;;;;;;;;;;;;;8.28;72.28;100169.16;6336896;22;20433;-79
2023/03/20 06:26:26;;;;;;;5.47;4.10;;;;;;;8.45;69.79;100149.06;6335251;22;19933;-79
2023/03/20 06:28:51;;;;;;;;;;;;;;;8.73;70.52;100176.25;6336800;22;20029;-79
2023/03/20 06:31:16;;;;;;;4.80;4.40;;;;;;;8.57;69.42;100146.47;6335593;22;19911;-78
2023/03/20 06:33:43;;;;;;;;;;;;;;;8.92;69.73;100163.97;6336421;22;19999;-79
2023/03/20 06:36:09;;;;;;;10.50;6.22;;;;;;;9.11;69.47;100162.22;6335922;22;19907;-81
2023/03/20 06:38:34;;;;;;;;;;;;;;;9.27;68.39;100167.44;6336720;22;20349;-79
2023/03/20 06:41:00;;;;;;;14.50;4.35;;;;;;;9.28;68.17;100137.59;6336118;22;19913;-79
2023/03/20 06:43:25;;;;;;;;;;;;;;;9.70;67.77;100167.31;6336656;22;20003;-78
2023/03/20 06:45:50;;;;;;;;;;;;;;;9.90;67.67;100161.97;6336205;22;19958;-79
2023/03/20 06:48:20;;;;;;;1.80;1.70;;;;;;;10.09;66.07;100156.59;6336133;22;20367;-79
2023/03/20 06:50:49;;;;;;;9.80;6.45;;;;;;;10.37;65.70;100150.28;6336225;22;20225;-79
2023/03/20 06:53:15;;;;;;;3.03;2.83;;;;;;;10.41;63.48;100139.72;6336189;22;20010;-79
2023/03/20 06:55:41;;;;;;;;;;;;;;;10.36;63.44;100156.47;6336517;22;20007;-78
2023/03/20 06:58:07;;;;;;;10.70;6.32;;;;;;;10.27;63.42;100131.84;6335993;22;20306;-77
2023/03/20 07:00:33;;;;;;;;;;;;;;;10.70;62.59;100150.91;6336908;22;20090;-78
2023/03/20 07:02:58;;;;;;;;;;;;;;;11.18;60.82;100146.97;6336407;22;19932;-79
2023/03/20 07:05:24;;;;;;;4.05;3.45;;;;;;;11.03;59.95;100098.72;6335882;22;20286;-80
2023/03/20 07:07:49;;;;;;;;;;;;;;;11.32;60.34;100146.81;6336366;22;20021;-80
2023/03/20 07:10:16;;;;;;;;;;;;;;;11.78;59.58;100156.84;6336549;22;20029;-79
2023/03/20 07:12:42;;;;;;;3.83;3.53;;;;;;;11.93;58.13;100147.88;6335664;22;19953;-81
2023/03/20 07:15:10;;;;;;;5.68;3.75;;;;;;;11.94;58.25;100142.56;6336427;22;20037;-80
2023/03/20 07:17:36;;;;;;;8.70;2.85;;;;;;;11.89;58.65;100147.00;6336268;22;20496;-80
2023/03/20 07:20:01;;;;;;;;;;;;;;;12.31;58.09;100150.00;6335772;22;20053;-80
2023/03/20 07:22:29;;;;;;;4.65;4.00;;;;;;;12.22;57.28;100089.28;6336272;22;19914;-80
2023/03/20 07:24:55;;;;;;;9.70;4.68;;;;;;;12.63;56.83;100131.84;6336090;22;20041;-79
2023/03/20 07:27:21;;;;;;;6.13;5.53;;;;;;;13.01;56.05;100139.13;6335825;22;20435;-79
2023/03/20 07:29:46;;;;;;;;;;;;;;;13.14;54.11;100145.06;6336503;22;20014;-82
2023/03/20 07:32:11;;;;;;;;;;;;;;;12.76;55.75;100145.75;6336226;22;19906;-82
2023/03/20 07:34:37;;;;;;;9.75;5.55;;;;;;;12.76;56.31;100100.75;6335886;22;20352;-81
2023/03/20 07:37:03;;;;;;;;;;;;;;;13.40;55.64;100131.38;6336724;22;19999;-81
2023/03/20 07:39:28;;;;;;;;;;;;;;;13.60;54.48;100125.66;6336576;22;19907;-81
2023/03/20 07:41:54;;;;;;;6.38;4.45;;;;;;;13.52;53.90;100113.50;6336315;22;19906;-81
2023/03/20 07:44:19;;;;;;;;;;;;;;;13.72;54.47;100127.19;6336667;22;20003;-81
2023/03/20 07:46:48;;;;;;;6.85;5.55;;;;;;;13.26;54.78;100102.47;6335946;22;20396;-81
2023/03/20 07:49:17;;;;;;;18.35;8.07;;;;;;;13.46;53.38;100098.56;6335902;22;20446;-81
2023/03/20 07:51:43;;;;;;;3.38;3.08;;;;;;;13.51;53.95;100096.69;6335228;22;20497;-83
2023/03/20 07:54:09;;;;;;;6.47;4.50;;;;;;;13.82;52.52;100085.44;6336076;22;20025;-81
2023/03/20 07:56:35;;;;;;;9.40;4.70;;;;;;;14.18;51.99;100100.56;6335796;22;20003;-81
2023/03/20 07:59:00;;;;;;;;;;;;;;;14.50;51.97;100110.41;6336178;22;20019;-81
2023/03/20 08:01:26;;;;;;;3.40;2.70;;;;;;;14.34;52.33;100099.28;6335850;22;20277;-82
2023/03/20 08:03:51;;;;;;;6.10;5.50;;;;;;;14.46;52.36;100079.56;6335584;22;20003;-81
2023/03/20 08:06:17;;;;;;;7.78;5.93;;;;;;;14.10;53.36;100050.31;6335557;22;20002;-81
2023/03/20 08:08:43;;;;;;;;;;;;;;;14.55;52.39;100113.84;6336368;22;20354;-81
2023/03/20 08:11:09;;;;;;;7.30;4.38;;;;;;;14.74;52.38;100108.97;6335803;22;20253;-83
2023/03/20 08:13:35;;;;;;;7.55;5.53;;;;;;;14.83;51.10;100100.75;6335747;22;20069;-81
2023/03/20 08:16:00;;;;;;;;;;;;;;;15.19;50.29;100107.78;6336305;22;20081;-81
2023/03/20 08:18:26;;;;;;;3.70;3.40;;;;;;;14.99;47.74;100118.94;6334810;22;19910;-81
2023/03/20 08:20:51;;;;;;;;;;;;;;;15.08;47.73;100104.56;6336501;22;19998;-81
2023/03/20 08:23:16;;;;;;;;;;;;;;;14.90;47.45;100101.44;6336373;22;19956;-81
2023/03/20 08:25:47;;;;;;;4.28;3.78;;;;;;;15.19;47.13;100103.31;6335894;22;19902;-81
2023/03/20 08:28:12;;;;;;;3.88;3.47;;;;;;;15.12;49.26;100058.38;6335435;22;20074;-81
2023/03/20 08:30:38;;;;;;;2.75;2.55;;;;;;;15.50;48.14;100110.44;6335529;22;20037;-81
2023/03/20 08:33:03;;;;;;;3.58;3.15;;;;;;;15.02;46.41;100100.25;6306627;22;20645;-81
2023/03/20 08:35:29;;;;;;;2.60;2.15;;;;;;;14.63;47.67;100084.47;6335518;22;20085;-81
2023/03/20 08:37:54;;;;;;;;;;;;;;;14.73;47.12;100101.03;6336133;22;20056;-80
2023/03/20 08:40:20;;;;;;;9.10;3.35;;;;;;;15.17;47.91;100075.06;6335800;22;20389;-80
2023/03/20 08:42:45;;;;;;;;;;;;;;;15.52;46.74;100100.66;6336167;22;20002;-82
2023/03/20 08:45:11;;;;;;;;;;;;;;;15.74;47.81;100095.56;6335781;22;19910;-81
2023/03/20 08:47:36;;;;;;;2.05;1.92;;;;;;;15.56;47.34;100070.38;6334829;22;19971;-79
2023/03/20 08:50:02;;;;;;;4.72;3.38;;;;;;;15.24;46.72;100071.31;6335194;22;20131;-80
2023/03/20 08:52:27;;;;;;;3.00;2.70;;;;;;;15.22;47.97;100031.50;6335936;22;20433;-80
2023/03/20 08:54:53;;;;;;;;;;;;;;;16.11;46.41;100089.16;6335697;22;20013;-80
2023/03/20 08:57:18;;;;;;;3.58;2.92;;;;;;;15.83;47.69;100054.53;6335423;22;19918;-80
2023/03/20 08:59:44;;;;;;;17.98;5.40;;;;;;;15.59;47.45;100042.84;6336109;22;20011;-80
2023/03/20 09:02:12;;;;;;;6.55;3.88;;;;;;;15.13;48.06;100054.81;6335110;22;19999;-80
2023/03/20 09:04:38;;;;;;;4.45;3.60;;;;;;;14.90;48.11;100018.25;6335399;22;20498;-80
2023/03/20 09:07:03;;;;;;;7.72;5.95;;;;;;;15.36;49.08;100067.44;6335746;22;20085;-78
2023/03/20 09:09:28;;;;;;;;;;;;;;;15.73;47.08;100069.88;6336294;22;20335;-78
2023/03/20 09:11:55;;;;;;;14.05;5.22;;;;;;;15.95;46.59;100044.44;6335643;22;19913;-78
2023/03/20 09:14:22;;;;;;;7.90;5.05;;;;;;;15.77;47.38;100070.72;6335580;22;20448;-78
2023/03/20 09:16:48;;;;;;;5.05;3.35;;;;;;;15.77;47.05;100060.06;6334365;22;20422;-78
2023/03/20 09:19:14;;;;;;;7.97;4.93;;;;;;;15.75;47.44;100070.72;6335387;22;20133;-78
2023/03/20 09:21:39;;;;;;;5.55;4.82;;;;;;;15.87;46.30;100050.88;6334621;22;20476;-78
2023/03/20 09:24:05;;;;;;;5.47;3.78;;;;;;;16.02;47.16;100038.00;6335556;22;20023;-78
2023/03/20 09:26:31;;;;;;;8.95;4.30;;;;;;;15.99;46.16;100033.66;6307957;22;20048;-78
2023/03/20 09:28:57;;;;;;;3.35;2.92;;;;;;;16.12;46.88;100066.06;6335009;22;20027;-77
2023/03/20 09:31:22;;;;;;;;;;;;;;;16.56;44.86;100057.50;6335786;22;20017;-78
2023/03/20 09:33:48;;;;;;;3.17;2.75;;;;;;;16.03;45.91;100061.88;6334717;22;19902;-81
2023/03/20 09:36:14;;;;;;;;;;;;;;;16.56;45.42;100057.50;6335912;22;20083;-79
2023/03/20 09:38:41;;;;;;;6.00;4.95;;;;;;;16.35;45.38;100016.53;6334828;22;19911;-78
2023/03/20 09:41:18;;;;;;;4.95;3.88;;;;;;;16.43;44.92;100014.47;6334452;22;20003;-79
2023/03/20 09:43:56;;;;;;;2.45;2.03;;;;;;;16.59;44.66;100052.09;6334803;22;20341;-77
2023/03/20 09:46:36;;;;;;;6.05;3.33;;;;;;;16.91;44.66;100043.00;6334470;22;20452;-76
2023/03/20 09:49:19;;;;;;;3.55;2.80;;;;;;;16.58;43.69;100034.38;6334654;22;20360;-79
2023/03/20 09:52:00;;;;;;;1.52;1.25;;;;;;;16.66;44.14;100008.34;6335225;22;20003;-79
2023/03/20 09:54:32;;;;;;;6.50;5.57;;;;;;;16.43;44.05;100033.09;6335045;22;20334;-80
2023/03/20 09:57:16;;;;;;;3.83;3.15;;;;;;;16.55;43.04;99984.75;6335196;22;20369;-80
2023/03/20 09:59:41;;;;;;;4.22;2.78;;;;;;;16.88;43.32;99994.28;6334348;22;20019;-80
2023/03/20 10:02:23;;;;;;;3.72;2.47;;;;;;;16.90;42.58;99973.78;6333963;22;20343;-80
2023/03/20 10:04:52;;;;;;;2.70;2.13;;;;;;;17.33;41.34;99977.50;6334498;22;20002;-80
2023/03/20 10:07:18;;;;;;;4.45;3.60;;;;;;;17.11;42.62;99983.66;6331845;22;20748;-79
2023/03/20 10:09:44;;;;;;;4.10;3.17;;;;;;;17.10;42.58;99987.25;6335335;22;20047;-80
2023/03/20 10:24:55;;;;;;;3.35;2.40;;;;;;;17.20;42.74;99982.44;5068763;27;20429;-77
2023/03/20 10:27:31;;;;;;;7.60;3.63;;;;;;;17.26;42.88;99976.03;5081464;28;20434;-79
2023/03/20 10:30:11;;;;;;;3.17;2.90;;;;;;;17.23;42.81;99968.13;5065158;28;20025;-77
2023/03/20 10:32:51;;;;;;;3.33;2.88;;;;;;;17.42;42.62;99978.97;5065691;28;20055;-78
2023/03/20 10:35:25;;;;;;;3.63;3.03;;;;;;;17.36;42.41;99961.38;5061511;28;20091;-78
2023/03/20 10:38:03;;;;;;;3.22;2.47;;;;;;;17.22;41.75;99953.91;5062028;28;20070;-81
2023/03/20 10:40:31;;;;;;;5.32;3.55;;;;;;;17.49;41.72;99937.81;5059343;28;22224;-78
2023/03/20 10:43:22;;;;;;;9.45;4.35;;;;;;;17.64;40.69;99955.88;5065287;28;20071;-80
2023/03/20 10:46:00;;;;;;;3.47;3.17;;;;;;;17.79;40.08;99948.16;5064704;28;20150;-79
2023/03/20 10:48:30;;;;;;;3.72;1.85;;;;;;;17.81;40.23;99939.16;5065350;28;20039;-80
2023/03/20 10:50:59;;;;;;;4.95;3.05;;;;;;;17.63;42.09;99919.44;5065421;28;20074;-80
2023/03/20 10:53:36;;;;;;;1.77;1.52;;;;;;;17.84;41.04;99896.34;5064684;28;20071;-79
2023/03/20 10:56:10;;;;;;;5.22;2.80;;;;;;;18.14;40.29;99898.69;5066553;28;20033;-79
2023/03/20 10:58:43;;;;;;;2.97;2.40;;;;;;;18.02;41.15;99904.53;5066435;28;20021;-79
2023/03/20 11:01:08;;;;;;;3.25;2.95;;;;;;;17.92;40.10;99904.06;5067042;28;20124;-80
2023/03/20 11:03:38;;;;;;;2.35;1.52;;;;;;;18.33;39.69;99911.22;5066768;28;20538;-77
2023/03/20 11:06:19;;;;;;;5.55;3.17;;;;;;;18.34;38.74;99888.94;5066313;28;20119;-79
2023/03/20 11:08:51;;;;;;;2.70;1.60;;;;;;;18.25;38.98;99874.19;5066573;28;20032;-77
2023/03/20 11:11:25;;;;;;;2.35;2.10;;;;;;;18.00;40.74;99856.56;5066783;28;20031;-78
2023/03/20 11:13:51;;;;;;;0.65;0.63;;;;;;;18.10;40.23;99857.03;5066480;28;20083;-80
2023/03/20 11:16:22;;;;;;;4.10;1.90;;;;;;;18.66;38.89;99870.59;5066594;28;20037;-79
2023/03/20 11:18:51;;;;;;;2.08;1.75;;;;;;;18.71;38.81;99874.78;5066374;28;20080;-79
2023/03/20 11:21:26;;;;;;;3.65;2.42;;;;;;;18.72;39.43;99851.59;5066510;28;20513;-79
2023/03/20 11:23:53;;;;;;;4.45;2.63;;;;;;;18.75;38.04;99827.41;5063464;28;20051;-79
2023/03/20 11:26:33;;;;;;;1.98;1.75;;;;;;;18.93;38.06;99836.41;5053150;28;20491;-78
2023/03/20 11:28:59;;;;;;;1.83;1.67;;;;;;;18.83;38.21;99829.72;5052715;28;20513;-79
2023/03/20 11:31:25;;;;;;;2.25;2.05;;;;;;;19.04;38.29;99847.44;5052687;28;20457;-78
2023/03/20 11:34:03;;;;;;;1.48;1.10;;;;;;;19.21;38.96;99837.75;5052427;28;20040;-79
2023/03/20 11:36:31;;;;;;;2.60;1.42;;;;;;;18.80;38.12;99852.13;5052731;28;20025;-77
2023/03/20 11:39:05;;;;;;;1.75;1.38;;;;;;;18.94;38.75;99803.41;5053079;28;20028;-79
2023/03/20 11:41:31;;;;;;;5.28;3.17;;;;;;;19.08;38.99;99837.50;5052528;28;20029;-78
2023/03/20 11:43:57;;;;;;;1.73;1.63;;;;;;;19.16;38.55;99805.91;5052891;28;20083;-78
2023/03/20 11:46:24;;;;;;;4.57;0.93;;;;;;;18.94;37.89;99809.63;5052462;28;20036;-79
2023/03/20 11:49:18;;;;;;;2.58;1.67;;;;;;;19.11;36.76;99787.41;5052840;28;20029;-78
2023/03/20 11:51:43;;;;;;;1.87;1.00;;;;;;;19.19;37.23;99804.91;5052168;28;20037;-78
2023/03/20 11:54:15;;;;;;;3.13;1.63;;;;;;;19.40;36.78;99809.19;5052518;28;20060;-78
2023/03/20 11:56:58;;;;;;;2.65;2.17;;;;;;;19.62;37.00;99802.75;5052008;28;20083;-81
2023/03/20 11:59:31;;;;;;;3.35;1.58;;;;;;;19.27;37.64;99778.63;5051745;28;20547;-80
2023/03/20 12:01:57;;;;;;;2.05;1.27;;;;;;;19.46;36.10;99778.56;5052036;28;20044;-79
2023/03/20 12:04:30;;;;;;;1.55;0.85;;;;;;;19.66;36.44;99791.81;5052186;28;20112;-82
2023/03/20 12:07:03;;;;;;;0.90;0.82;;;;;;;19.63;35.32;99781.28;5050592;28;20400;-80
2023/03/20 12:09:38;;;;;;;1.42;0.98;;;;;;;19.56;35.53;99762.94;5052560;28;20025;-79
2023/03/20 12:12:30;;;;;;;1.27;0.90;;;;;;;19.95;35.30;99776.06;5051615;28;20564;-79